Time,TemperatureF,DewpointF,PressureIn,WindDirection,WindDirectionDegrees,WindSpeedMPH,WindSpeedGustMPH,Humidity,HourlyPrecipIn,Conditions,Clouds,dailyrainin,SoftwareType,DateUTC
2013-05-02 00:00:00,65.8,38.1,30.24,SSE,153,2.0,8.0,36,0.00,,,0.00,meteohub,2013-05-02 04:00:00,
2013-05-02 00:01:00,65.8,38.1,30.24,SSE,153,2.0,8.0,36,0.00,,,0.00,meteohub,2013-05-02 04:01:00,
2013-05-02 00:07:00,66.0,37.6,30.24,SSE,148,7.0,9.0,35,0.00,,,0.00,meteohub,2013-05-02 04:07:00,
2013-05-02 00:12:00,66.2,37.0,30.24,SE,141,7.0,10.0,34,0.00,,,0.00,meteohub,2013-05-02 04:12:00,
2013-05-02 00:17:00,66.2,37.0,30.25,SE,146,4.0,11.0,34,0.00,,,0.00,meteohub,2013-05-02 04:17:00,
2013-05-02 00:22:00,66.2,37.0,30.25,SSE,163,5.0,11.0,34,0.00,,,0.00,meteohub,2013-05-02 04:22:00,
2013-05-02 00:27:00,66.4,37.2,30.25,SE,137,6.0,17.0,34,0.00,,,0.00,meteohub,2013-05-02 04:27:00,
2013-05-02 00:32:00,66.6,36.5,30.24,South,171,5.0,17.0,33,0.00,,,0.00,meteohub,2013-05-02 04:32:00,
2013-05-02 00:37:00,66.6,37.4,30.25,South,172,5.0,17.0,34,0.00,,,0.00,meteohub,2013-05-02 04:37:00,
2013-05-02 00:42:00,66.4,37.2,30.25,SSW,205,1.0,12.0,34,0.00,,,0.00,meteohub,2013-05-02 04:42:00,
2013-05-02 00:47:00,66.0,36.9,30.25,SSW,197,6.0,12.0,34,0.00,,,0.00,meteohub,2013-05-02 04:47:00,
2013-05-02 00:52:00,66.0,37.6,30.25,SSW,209,3.0,9.0,35,0.00,,,0.00,meteohub,2013-05-02 04:52:00,
2013-05-02 00:57:00,65.8,37.4,30.25,South,169,4.0,9.0,35,0.00,,,0.00,meteohub,2013-05-02 04:57:00,
2013-05-02 01:02:00,65.7,37.2,30.25,South,182,5.0,9.0,35,0.00,,,0.00,meteohub,2013-05-02 05:02:00,
2013-05-02 01:07:00,65.5,37.0,30.25,South,180,2.0,9.0,35,0.00,,,0.00,meteohub,2013-05-02 05:07:00,
2013-05-02 01:12:00,65.1,37.6,30.25,South,184,2.0,9.0,36,0.00,,,0.00,meteohub,2013-05-02 05:12:00,
2013-05-02 01:17:00,64.9,37.4,30.25,South,182,0.0,9.0,36,0.00,,,0.00,meteohub,2013-05-02 05:17:00,
2013-05-02 01:22:00,64.8,37.9,30.25,SSE,165,4.0,7.0,37,0.00,,,0.00,meteohub,2013-05-02 05:22:00,
2013-05-02 01:27:00,64.6,37.8,30.24,South,187,1.0,6.0,37,0.00,,,0.00,meteohub,2013-05-02 05:27:00,
2013-05-02 01:32:00,64.4,38.3,30.25,South,185,1.0,5.0,38,0.00,,,0.00,meteohub,2013-05-02 05:32:00,
2013-05-02 01:37:00,64.2,38.1,30.25,South,186,1.0,5.0,38,0.00,,,0.00,meteohub,2013-05-02 05:37:00,
2013-05-02 01:42:00,64.0,37.9,30.25,South,190,0.0,4.0,38,0.00,,,0.00,meteohub,2013-05-02 05:42:00,
2013-05-02 01:47:00,64.0,37.9,30.25,South,190,0.0,4.0,38,0.00,,,0.00,meteohub,2013-05-02 05:47:00,
2013-05-02 01:52:00,63.9,37.8,30.25,South,190,0.0,4.0,38,0.00,,,0.00,meteohub,2013-05-02 05:52:00,
2013-05-02 01:57:00,63.7,37.6,30.25,South,190,0.0,4.0,38,0.00,,,0.00,meteohub,2013-05-02 05:57:00,
2013-05-02 02:02:00,63.3,37.9,30.25,South,190,0.0,2.0,39,0.00,,,0.00,meteohub,2013-05-02 06:02:00,
2013-05-02 02:07:00,63.3,37.9,30.25,South,179,2.0,5.0,39,0.00,,,0.00,meteohub,2013-05-02 06:07:00,
2013-05-02 02:12:00,63.1,37.0,30.25,South,169,2.0,5.0,38,0.00,,,0.00,meteohub,2013-05-02 06:12:00,
2013-05-02 02:17:00,63.3,37.2,30.25,SSE,165,1.0,5.0,38,0.00,,,0.00,meteohub,2013-05-02 06:17:00,
2013-05-02 02:22:00,63.3,37.2,30.25,South,188,0.0,5.0,38,0.00,,,0.00,meteohub,2013-05-02 06:22:00,
2013-05-02 02:27:00,63.1,37.0,30.25,South,191,0.0,5.0,38,0.00,,,0.00,meteohub,2013-05-02 06:27:00,
2013-05-02 02:32:00,63.0,37.0,30.25,South,191,0.0,5.0,38,0.00,,,0.00,meteohub,2013-05-02 06:32:00,
2013-05-02 02:37:00,62.6,37.9,30.25,South,191,0.0,2.0,40,0.00,,,0.00,meteohub,2013-05-02 06:37:00,
2013-05-02 02:42:00,62.2,38.3,30.25,South,191,0.0,2.0,41,0.00,,,0.00,meteohub,2013-05-02 06:42:00,
2013-05-02 02:47:00,61.7,37.8,30.25,South,191,0.0,0.0,41,0.00,,,0.00,meteohub,2013-05-02 06:47:00,
2013-05-02 02:52:00,61.3,37.4,30.25,South,191,0.0,0.0,41,0.00,,,0.00,meteohub,2013-05-02 06:52:00,
2013-05-02 02:57:00,61.2,37.2,30.25,South,191,0.0,0.0,41,0.00,,,0.00,meteohub,2013-05-02 06:57:00,
2013-05-02 03:02:00,60.8,36.9,30.25,South,191,0.0,0.0,41,0.00,,,0.00,meteohub,2013-05-02 07:02:00,
2013-05-02 03:07:00,60.4,37.2,30.25,South,191,0.0,0.0,42,0.00,,,0.00,meteohub,2013-05-02 07:07:00,
2013-05-02 03:12:00,60.3,37.8,30.25,South,191,0.0,0.0,43,0.00,,,0.00,meteohub,2013-05-02 07:12:00,
2013-05-02 03:17:00,59.7,38.3,30.25,South,191,0.0,0.0,45,0.00,,,0.00,meteohub,2013-05-02 07:17:00,
2013-05-02 03:22:00,59.4,37.9,30.26,South,191,0.0,0.0,45,0.00,,,0.00,meteohub,2013-05-02 07:22:00,
2013-05-02 03:27:00,59.0,37.8,30.26,South,191,0.0,0.0,45,0.00,,,0.00,meteohub,2013-05-02 07:27:00,
2013-05-02 03:32:00,58.8,37.6,30.26,South,191,0.0,0.0,45,0.00,,,0.00,meteohub,2013-05-02 07:32:00,
2013-05-02 03:37:00,58.8,37.6,30.26,South,191,0.0,0.0,45,0.00,,,0.00,meteohub,2013-05-02 07:37:00,
2013-05-02 03:42:00,58.6,38.5,30.26,South,191,0.0,0.0,47,0.00,,,0.00,meteohub,2013-05-02 07:42:00,
2013-05-02 03:47:00,58.3,38.1,30.26,South,191,0.0,0.0,47,0.00,,,0.00,meteohub,2013-05-02 07:47:00,
2013-05-02 03:52:00,57.9,38.3,30.27,South,191,0.0,0.0,48,0.00,,,0.00,meteohub,2013-05-02 07:52:00,
2013-05-02 03:57:00,57.6,38.5,30.27,South,191,0.0,0.0,49,0.00,,,0.00,meteohub,2013-05-02 07:57:00,
2013-05-02 04:02:00,57.2,38.7,30.27,South,191,0.0,0.0,50,0.00,,,0.00,meteohub,2013-05-02 08:02:00,
2013-05-02 04:08:00,56.8,38.8,30.27,South,191,0.0,0.0,51,0.00,,,0.00,meteohub,2013-05-02 08:08:00,
2013-05-02 04:13:00,56.5,40.1,30.27,South,191,0.0,0.0,54,0.00,,,0.00,meteohub,2013-05-02 08:13:00,
2013-05-02 04:18:00,55.8,39.9,30.27,South,191,0.0,1.0,55,0.00,,,0.00,meteohub,2013-05-02 08:18:00,
2013-05-02 04:23:00,55.2,40.3,30.27,South,191,0.0,1.0,57,0.00,,,0.00,meteohub,2013-05-02 08:23:00,
2013-05-02 04:28:00,54.9,40.8,30.28,South,191,0.0,1.0,59,0.00,,,0.00,meteohub,2013-05-02 08:28:00,
2013-05-02 04:33:00,54.3,40.8,30.28,South,191,0.0,0.0,60,0.00,,,0.00,meteohub,2013-05-02 08:33:00,
2013-05-02 04:38:00,54.0,40.8,30.28,South,191,0.0,0.0,61,0.00,,,0.00,meteohub,2013-05-02 08:38:00,
2013-05-02 04:43:00,53.8,41.0,30.28,South,191,0.0,0.0,62,0.00,,,0.00,meteohub,2013-05-02 08:43:00,
2013-05-02 04:48:00,53.2,41.0,30.28,South,191,0.0,0.0,63,0.00,,,0.00,meteohub,2013-05-02 08:48:00,
2013-05-02 04:53:00,53.1,41.2,30.28,South,191,0.0,0.0,64,0.00,,,0.00,meteohub,2013-05-02 08:53:00,
2013-05-02 04:58:00,52.9,41.4,30.28,South,191,0.0,0.0,65,0.00,,,0.00,meteohub,2013-05-02 08:58:00,
2013-05-02 05:03:00,52.5,41.5,30.28,South,191,0.0,0.0,66,0.00,,,0.00,meteohub,2013-05-02 09:03:00,
2013-05-02 05:08:00,52.3,41.4,30.28,South,191,0.0,0.0,66,0.00,,,0.00,meteohub,2013-05-02 09:08:00,
2013-05-02 05:13:00,52.2,41.5,30.28,South,191,0.0,0.0,67,0.00,,,0.00,meteohub,2013-05-02 09:13:00,
2013-05-02 05:18:00,52.0,41.4,30.28,South,191,0.0,0.0,67,0.00,,,0.00,meteohub,2013-05-02 09:18:00,
2013-05-02 05:23:00,51.8,41.5,30.28,South,191,0.0,0.0,68,0.00,,,0.00,meteohub,2013-05-02 09:23:00,
2013-05-02 05:28:00,51.6,41.4,30.28,South,191,0.0,0.0,68,0.00,,,0.00,meteohub,2013-05-02 09:28:00,
2013-05-02 05:33:00,51.6,41.4,30.29,South,191,0.0,0.0,68,0.00,,,0.00,meteohub,2013-05-02 09:33:00,
2013-05-02 05:38:00,51.4,41.2,30.29,South,191,0.0,0.0,68,0.00,,,0.00,meteohub,2013-05-02 09:38:00,
2013-05-02 05:43:00,51.3,41.0,30.29,South,191,0.0,0.0,68,0.00,,,0.00,meteohub,2013-05-02 09:43:00,
2013-05-02 05:48:00,51.3,41.4,30.30,South,191,0.0,0.0,69,0.00,,,0.00,meteohub,2013-05-02 09:48:00,
2013-05-02 05:54:00,50.9,41.5,30.30,South,191,0.0,0.0,70,0.00,,,0.00,meteohub,2013-05-02 09:54:00,
2013-05-02 05:58:00,50.5,41.5,30.30,South,191,0.0,0.0,71,0.00,,,0.00,meteohub,2013-05-02 09:58:00,
2013-05-02 06:04:00,50.4,41.4,30.30,South,191,0.0,0.0,71,0.00,,,0.00,meteohub,2013-05-02 10:04:00,
2013-05-02 06:09:00,50.0,41.4,30.30,South,191,0.0,0.0,72,0.00,,,0.00,meteohub,2013-05-02 10:09:00,
2013-05-02 06:14:00,49.8,41.2,30.30,South,191,0.0,0.0,72,0.00,,,0.00,meteohub,2013-05-02 10:14:00,
2013-05-02 06:19:00,49.6,41.4,30.31,South,191,0.0,0.0,73,0.00,,,0.00,meteohub,2013-05-02 10:19:00,
2013-05-02 06:24:00,49.5,41.2,30.31,South,191,0.0,0.0,73,0.00,,,0.00,meteohub,2013-05-02 10:24:00,
2013-05-02 06:29:00,49.3,41.4,30.31,South,191,0.0,0.0,74,0.00,,,0.00,meteohub,2013-05-02 10:29:00,
2013-05-02 06:34:00,49.3,41.4,30.31,South,191,0.0,0.0,74,0.00,,,0.00,meteohub,2013-05-02 10:34:00,
2013-05-02 06:39:00,49.5,41.9,30.31,South,191,0.0,0.0,75,0.00,,,0.00,meteohub,2013-05-02 10:39:00,
2013-05-02 06:44:00,49.6,42.1,30.32,South,191,0.0,0.0,75,0.00,,,0.00,meteohub,2013-05-02 10:44:00,
2013-05-02 06:49:00,50.0,42.1,30.32,South,191,0.0,0.0,74,0.00,,,0.00,meteohub,2013-05-02 10:49:00,
2013-05-02 06:54:00,50.4,42.4,30.32,South,191,0.0,0.0,74,0.00,,,0.00,meteohub,2013-05-02 10:54:00,
2013-05-02 06:59:00,51.3,43.3,30.32,South,191,0.0,0.0,74,0.00,,,0.00,meteohub,2013-05-02 10:59:00,
2013-05-02 07:04:00,52.0,43.5,30.32,South,191,0.0,0.0,73,0.00,,,0.00,meteohub,2013-05-02 11:04:00,
2013-05-02 07:09:00,52.7,43.5,30.32,South,191,0.0,0.0,71,0.00,,,0.00,meteohub,2013-05-02 11:09:00,
2013-05-02 07:14:00,53.4,43.9,30.32,South,191,0.0,0.0,70,0.00,,,0.00,meteohub,2013-05-02 11:14:00,
2013-05-02 07:19:00,54.3,44.8,30.33,South,191,0.0,0.0,70,0.00,,,0.00,meteohub,2013-05-02 11:19:00,
2013-05-02 07:24:00,55.2,44.4,30.33,South,191,0.0,0.0,67,0.00,,,0.00,meteohub,2013-05-02 11:24:00,
2013-05-02 07:29:00,55.6,43.5,30.33,South,191,0.0,0.0,64,0.00,,,0.00,meteohub,2013-05-02 11:29:00,
2013-05-02 07:34:00,56.5,45.3,30.33,South,191,0.0,0.0,66,0.00,,,0.00,meteohub,2013-05-02 11:34:00,
2013-05-02 07:39:00,57.6,45.1,30.33,South,191,0.0,0.0,63,0.00,,,0.00,meteohub,2013-05-02 11:39:00,
2013-05-02 07:45:00,58.8,44.1,30.34,South,191,0.0,0.0,58,0.00,,,0.00,meteohub,2013-05-02 11:45:00,
2013-05-02 07:49:00,59.5,41.9,30.33,South,191,0.0,0.0,52,0.00,,,0.00,meteohub,2013-05-02 11:49:00,
2013-05-02 07:54:00,60.3,39.9,30.34,South,191,1.0,2.0,47,0.00,,,0.00,meteohub,2013-05-02 11:54:00,
2013-05-02 08:00:00,60.6,39.7,30.34,South,191,0.0,3.0,46,0.00,,,0.00,meteohub,2013-05-02 12:00:00,
2013-05-02 08:05:00,61.2,39.7,30.34,South,187,1.0,3.0,45,0.00,,,0.00,meteohub,2013-05-02 12:05:00,
2013-05-02 08:10:00,61.3,38.7,30.34,SW,215,0.0,3.0,43,0.00,,,0.00,meteohub,2013-05-02 12:10:00,
2013-05-02 08:15:00,61.5,38.8,30.34,SW,215,0.0,3.0,43,0.00,,,0.00,meteohub,2013-05-02 12:15:00,
2013-05-02 08:20:00,61.9,37.9,30.34,SE,140,4.0,4.0,41,0.00,,,0.00,meteohub,2013-05-02 12:20:00,
2013-05-02 08:25:00,61.9,37.9,30.34,SSW,211,7.0,9.0,41,0.00,,,0.00,meteohub,2013-05-02 12:25:00,
2013-05-02 08:30:00,62.1,37.4,30.34,SW,217,3.0,9.0,40,0.00,,,0.00,meteohub,2013-05-02 12:30:00,
2013-05-02 08:35:00,62.4,38.5,30.34,SW,217,2.0,9.0,41,0.00,,,0.00,meteohub,2013-05-02 12:35:00,
2013-05-02 08:40:00,62.6,37.2,30.34,SSW,204,1.0,9.0,39,0.00,,,0.00,meteohub,2013-05-02 12:40:00,
2013-05-02 08:45:00,62.8,37.4,30.35,SSW,199,0.0,9.0,39,0.00,,,0.00,meteohub,2013-05-02 12:45:00,
2013-05-02 08:50:00,63.1,38.5,30.35,WSW,250,6.0,8.0,40,0.00,,,0.00,meteohub,2013-05-02 12:50:00,
2013-05-02 08:55:00,63.1,38.5,30.35,SSE,164,0.0,8.0,40,0.00,,,0.00,meteohub,2013-05-02 12:55:00,
2013-05-02 09:00:00,63.3,37.2,30.35,SSW,201,3.0,8.0,38,0.00,,,0.00,meteohub,2013-05-02 13:00:00,
2013-05-02 09:05:00,63.3,37.9,30.35,WSW,253,3.0,9.0,39,0.00,,,0.00,meteohub,2013-05-02 13:05:00,
2013-05-02 09:10:00,63.5,38.7,30.35,SSW,204,5.0,9.0,40,0.00,,,0.00,meteohub,2013-05-02 13:10:00,
2013-05-02 09:15:00,63.9,38.5,30.35,WSW,241,4.0,9.0,39,0.00,,,0.00,meteohub,2013-05-02 13:15:00,
2013-05-02 09:20:00,63.7,38.8,30.35,SSW,205,2.0,9.0,40,0.00,,,0.00,meteohub,2013-05-02 13:20:00,
2013-05-02 09:25:00,63.9,38.5,30.35,South,178,5.0,9.0,39,0.00,,,0.00,meteohub,2013-05-02 13:25:00,
2013-05-02 09:30:00,64.0,37.9,30.35,South,177,8.0,9.0,38,0.00,,,0.00,meteohub,2013-05-02 13:30:00,
2013-05-02 09:35:00,64.0,38.7,30.35,WSW,244,7.0,11.0,39,0.00,,,0.00,meteohub,2013-05-02 13:35:00,
2013-05-02 09:40:00,64.0,37.9,30.35,SW,221,5.0,13.0,38,0.00,,,0.00,meteohub,2013-05-02 13:40:00,
2013-05-02 09:45:00,64.6,38.5,30.35,West,268,2.0,13.0,38,0.00,,,0.00,meteohub,2013-05-02 13:45:00,
2013-05-02 09:51:00,64.8,37.2,30.35,SSW,203,6.0,15.0,36,0.00,,,0.00,meteohub,2013-05-02 13:51:00,
2013-05-02 09:55:00,64.8,37.9,30.35,South,184,8.0,15.0,37,0.00,,,0.00,meteohub,2013-05-02 13:55:00,
2013-05-02 10:01:00,64.9,38.1,30.35,SW,236,5.0,15.0,37,0.00,,,0.00,meteohub,2013-05-02 14:01:00,
2013-05-02 10:06:00,65.3,37.6,30.35,SW,222,6.0,12.0,36,0.00,,,0.00,meteohub,2013-05-02 14:06:00,
2013-05-02 10:11:00,65.5,38.5,30.35,South,182,7.0,12.0,37,0.00,,,0.00,meteohub,2013-05-02 14:11:00,
2013-05-02 10:16:00,65.7,37.9,30.35,WSW,252,4.0,12.0,36,0.00,,,0.00,meteohub,2013-05-02 14:16:00,
2013-05-02 10:21:00,65.8,38.8,30.35,SSW,203,6.0,12.0,37,0.00,,,0.00,meteohub,2013-05-02 14:21:00,
2013-05-02 10:26:00,66.0,38.3,30.35,SW,215,4.0,12.0,36,0.00,,,0.00,meteohub,2013-05-02 14:26:00,
2013-05-02 10:31:00,66.2,38.5,30.35,SSW,208,7.0,11.0,36,0.00,,,0.00,meteohub,2013-05-02 14:31:00,
2013-05-02 10:36:00,66.4,37.9,30.35,SW,233,4.0,11.0,35,0.00,,,0.00,meteohub,2013-05-02 14:36:00,
2013-05-02 10:41:00,66.4,38.7,30.35,SSW,199,5.0,11.0,36,0.00,,,0.00,meteohub,2013-05-02 14:41:00,
2013-05-02 10:46:00,66.6,38.1,30.35,WSW,247,2.0,11.0,35,0.00,,,0.00,meteohub,2013-05-02 14:46:00,
2013-05-02 10:51:00,66.7,37.4,30.35,SE,143,5.0,10.0,34,0.00,,,0.00,meteohub,2013-05-02 14:51:00,
2013-05-02 10:56:00,67.3,37.9,30.35,SSE,151,6.0,10.0,34,0.00,,,0.00,meteohub,2013-05-02 14:56:00,
2013-05-02 11:01:00,67.5,38.8,30.35,South,173,0.0,10.0,35,0.00,,,0.00,meteohub,2013-05-02 15:01:00,
2013-05-02 11:06:00,67.8,38.5,30.35,SSW,194,0.0,10.0,34,0.00,,,0.00,meteohub,2013-05-02 15:06:00,
2013-05-02 11:11:00,68.5,40.5,30.35,SSE,150,1.0,10.0,36,0.00,,,0.00,meteohub,2013-05-02 15:11:00,
2013-05-02 11:16:00,68.7,38.5,30.34,SE,146,5.0,7.0,33,0.00,,,0.00,meteohub,2013-05-02 15:16:00,
2013-05-02 11:21:00,68.9,38.7,30.34,South,189,0.0,6.0,33,0.00,,,0.00,meteohub,2013-05-02 15:21:00,
2013-05-02 11:26:00,70.0,39.6,30.34,ENE,77,0.0,5.0,33,0.00,,,0.00,meteohub,2013-05-02 15:26:00,
2013-05-02 11:31:00,71.2,39.9,30.34,East,86,0.0,5.0,32,0.00,,,0.00,meteohub,2013-05-02 15:31:00,
2013-05-02 11:37:00,71.2,39.9,30.34,East,87,7.0,7.0,32,0.00,,,0.00,meteohub,2013-05-02 15:37:00,
2013-05-02 11:42:00,71.1,38.8,30.34,East,98,2.0,10.0,31,0.00,,,0.00,meteohub,2013-05-02 15:42:00,
2013-05-02 11:47:00,70.9,39.6,30.34,ESE,104,0.0,10.0,32,0.00,,,0.00,meteohub,2013-05-02 15:47:00,
2013-05-02 11:52:00,71.2,41.4,30.34,ENE,69,0.0,10.0,34,0.00,,,0.00,meteohub,2013-05-02 15:52:00,
2013-05-02 11:57:00,71.8,37.8,30.33,SSW,192,1.0,11.0,29,0.00,,,0.00,meteohub,2013-05-02 15:57:00,
2013-05-02 12:02:00,71.2,37.4,30.33,ENE,63,2.0,11.0,29,0.00,,,0.00,meteohub,2013-05-02 16:02:00,
2013-05-02 12:07:00,71.2,38.3,30.33,SSW,207,0.0,11.0,30,0.00,,,0.00,meteohub,2013-05-02 16:07:00,
2013-05-02 12:12:00,71.2,38.3,30.33,SSE,157,2.0,11.0,30,0.00,,,0.00,meteohub,2013-05-02 16:12:00,
2013-05-02 12:17:00,71.2,39.0,30.32,East,96,6.0,9.0,31,0.00,,,0.00,meteohub,2013-05-02 16:17:00,
2013-05-02 12:22:00,72.0,40.5,30.32,ENE,59,4.0,9.0,32,0.00,,,0.00,meteohub,2013-05-02 16:22:00,
2013-05-02 12:27:00,73.0,41.4,30.32,NE,41,0.0,9.0,32,0.00,,,0.00,meteohub,2013-05-02 16:27:00,
2013-05-02 12:32:00,74.3,41.7,30.32,NNW,331,1.0,8.0,31,0.00,,,0.00,meteohub,2013-05-02 16:32:00,
2013-05-02 12:37:00,73.6,37.6,30.32,South,190,5.0,8.0,27,0.00,,,0.00,meteohub,2013-05-02 16:37:00,
2013-05-02 12:42:00,72.5,38.5,30.32,SW,222,3.0,9.0,29,0.00,,,0.00,meteohub,2013-05-02 16:42:00,
2013-05-02 12:47:00,72.3,39.9,30.32,East,84,4.0,9.0,31,0.00,,,0.00,meteohub,2013-05-02 16:47:00,
2013-05-02 12:52:00,73.2,40.8,30.31,SSE,150,0.0,9.0,31,0.00,,,0.00,meteohub,2013-05-02 16:52:00,
2013-05-02 12:57:00,73.8,38.7,30.31,East,79,4.0,7.0,28,0.00,,,0.00,meteohub,2013-05-02 16:57:00,
2013-05-02 13:02:00,73.6,38.5,30.31,ESE,108,4.0,12.0,28,0.00,,,0.00,meteohub,2013-05-02 17:02:00,
2013-05-02 13:07:00,73.6,36.5,30.30,ENE,62,3.0,12.0,26,0.00,,,0.00,meteohub,2013-05-02 17:07:00,
2013-05-02 13:12:00,74.1,37.9,30.30,East,92,8.0,12.0,27,0.00,,,0.00,meteohub,2013-05-02 17:12:00,
2013-05-02 13:17:00,74.3,38.1,30.30,ENE,63,4.0,13.0,27,0.00,,,0.00,meteohub,2013-05-02 17:17:00,
2013-05-02 13:22:00,74.5,38.3,30.30,ENE,61,5.0,16.0,27,0.00,,,0.00,meteohub,2013-05-02 17:22:00,
2013-05-02 13:27:00,74.8,37.6,30.30,South,182,6.0,16.0,26,0.00,,,0.00,meteohub,2013-05-02 17:27:00,
2013-05-02 13:32:00,74.7,38.5,30.30,SE,132,5.0,16.0,27,0.00,,,0.00,meteohub,2013-05-02 17:32:00,
2013-05-02 13:37:00,75.2,38.8,30.29,ESE,115,8.0,12.0,27,0.00,,,0.00,meteohub,2013-05-02 17:37:00,
2013-05-02 13:42:00,74.8,36.7,30.29,ENE,71,10.0,15.0,25,0.00,,,0.00,meteohub,2013-05-02 17:42:00,
2013-05-02 13:47:00,74.8,37.6,30.28,SSE,165,2.0,15.0,26,0.00,,,0.00,meteohub,2013-05-02 17:47:00,
2013-05-02 13:52:00,75.0,36.9,30.29,SSE,168,8.0,15.0,25,0.00,,,0.00,meteohub,2013-05-02 17:52:00,
2013-05-02 13:57:00,75.0,38.8,30.28,East,87,2.0,13.0,27,0.00,,,0.00,meteohub,2013-05-02 17:57:00,
2013-05-02 14:02:00,75.6,41.0,30.28,SSW,199,4.0,13.0,29,0.00,,,0.00,meteohub,2013-05-02 18:02:00,
2013-05-02 14:08:00,75.7,38.5,30.28,SSE,149,6.0,13.0,26,0.00,,,0.00,meteohub,2013-05-02 18:08:00,
2013-05-02 14:13:00,75.6,37.2,30.28,South,171,7.0,12.0,25,0.00,,,0.00,meteohub,2013-05-02 18:13:00,
2013-05-02 14:18:00,75.7,39.4,30.28,SSE,154,2.0,12.0,27,0.00,,,0.00,meteohub,2013-05-02 18:18:00,
2013-05-02 14:23:00,76.3,37.9,30.28,ENE,78,3.0,12.0,25,0.00,,,0.00,meteohub,2013-05-02 18:23:00,
2013-05-02 14:28:00,76.1,36.7,30.27,East,85,3.0,12.0,24,0.00,,,0.00,meteohub,2013-05-02 18:28:00,
2013-05-02 14:33:00,76.5,39.9,30.27,East,95,4.0,12.0,27,0.00,,,0.00,meteohub,2013-05-02 18:33:00,
2013-05-02 14:38:00,76.6,38.1,30.27,ESE,121,8.0,12.0,25,0.00,,,0.00,meteohub,2013-05-02 18:38:00,
2013-05-02 14:43:00,76.5,37.9,30.27,NNE,27,0.0,13.0,25,0.00,,,0.00,meteohub,2013-05-02 18:43:00,
2013-05-02 14:48:00,76.8,38.3,30.27,East,101,6.0,13.0,25,0.00,,,0.00,meteohub,2013-05-02 18:48:00,
2013-05-02 14:53:00,77.0,39.6,30.27,East,86,1.0,13.0,26,0.00,,,0.00,meteohub,2013-05-02 18:53:00,
2013-05-02 14:58:00,77.4,36.7,30.27,SE,145,4.0,12.0,23,0.00,,,0.00,meteohub,2013-05-02 18:58:00,
2013-05-02 15:03:00,77.2,35.4,30.27,SSE,155,4.0,12.0,22,0.00,,,0.00,meteohub,2013-05-02 19:03:00,
2013-05-02 15:09:00,77.2,36.5,30.26,ENE,57,2.0,9.0,23,0.00,,,0.00,meteohub,2013-05-02 19:09:00,
2013-05-02 15:14:00,78.1,38.3,30.26,SE,142,1.0,9.0,24,0.00,,,0.00,meteohub,2013-05-02 19:14:00,
2013-05-02 15:19:00,78.4,37.6,30.26,ESE,119,2.0,9.0,23,0.00,,,0.00,meteohub,2013-05-02 19:19:00,
2013-05-02 15:24:00,77.9,38.1,30.25,East,90,5.0,11.0,24,0.00,,,0.00,meteohub,2013-05-02 19:24:00,
2013-05-02 15:29:00,77.9,38.1,30.25,ENE,69,12.0,12.0,24,0.00,,,0.00,meteohub,2013-05-02 19:29:00,
2013-05-02 15:34:00,77.9,37.0,30.25,East,101,6.0,13.0,23,0.00,,,0.00,meteohub,2013-05-02 19:34:00,
2013-05-02 15:39:00,77.9,37.0,30.25,ENE,72,8.0,13.0,23,0.00,,,0.00,meteohub,2013-05-02 19:39:00,
2013-05-02 15:44:00,78.1,37.2,30.25,SSW,203,2.0,13.0,23,0.00,,,0.00,meteohub,2013-05-02 19:44:00,
2013-05-02 15:49:00,78.1,37.2,30.24,SSW,204,0.0,14.0,23,0.00,,,0.00,meteohub,2013-05-02 19:49:00,
2013-05-02 15:54:00,78.4,36.5,30.24,East,84,6.0,14.0,22,0.00,,,0.00,meteohub,2013-05-02 19:54:00,
2013-05-02 15:59:00,78.4,35.2,30.23,East,92,4.0,14.0,21,0.00,,,0.00,meteohub,2013-05-02 19:59:00,
2013-05-02 16:04:00,78.4,37.6,30.23,SE,140,8.0,12.0,23,0.00,,,0.00,meteohub,2013-05-02 20:04:00,
2013-05-02 16:09:00,78.1,33.8,30.23,ESE,123,6.0,14.0,20,0.00,,,0.00,meteohub,2013-05-02 20:09:00,
2013-05-02 16:14:00,78.4,35.2,30.23,East,85,5.0,14.0,21,0.00,,,0.00,meteohub,2013-05-02 20:14:00,
2013-05-02 16:19:00,78.8,33.1,30.22,SSE,157,1.0,14.0,19,0.00,,,0.00,meteohub,2013-05-02 20:19:00,
2013-05-02 16:24:00,78.6,36.7,30.22,ENE,74,4.0,13.0,22,0.00,,,0.00,meteohub,2013-05-02 20:24:00,
2013-05-02 16:29:00,79.2,35.8,30.22,East,85,18.0,18.0,21,0.00,,,0.00,meteohub,2013-05-02 20:29:00,
2013-05-02 16:34:00,79.0,34.5,30.22,SSE,150,4.0,19.0,20,0.00,,,0.00,meteohub,2013-05-02 20:34:00,
2013-05-02 16:39:00,78.6,34.2,30.22,SSE,147,4.0,19.0,20,0.00,,,0.00,meteohub,2013-05-02 20:39:00,
2013-05-02 16:44:00,78.6,34.2,30.22,South,184,4.0,19.0,20,0.00,,,0.00,meteohub,2013-05-02 20:44:00,
2013-05-02 16:49:00,78.8,34.3,30.22,ENE,69,6.0,12.0,20,0.00,,,0.00,meteohub,2013-05-02 20:49:00,
2013-05-02 16:54:00,79.0,34.5,30.21,SE,132,9.0,16.0,20,0.00,,,0.00,meteohub,2013-05-02 20:54:00,
2013-05-02 17:00:00,79.2,33.4,30.21,East,88,8.0,16.0,19,0.00,,,0.00,meteohub,2013-05-02 21:00:00,
2013-05-02 17:05:00,79.2,33.4,30.21,East,88,2.0,16.0,19,0.00,,,0.00,meteohub,2013-05-02 21:05:00,
2013-05-02 17:10:00,79.2,34.7,30.21,ESE,103,6.0,13.0,20,0.00,,,0.00,meteohub,2013-05-02 21:10:00,
2013-05-02 17:15:00,79.2,34.7,30.21,ENE,76,7.0,12.0,20,0.00,,,0.00,meteohub,2013-05-02 21:15:00,
2013-05-02 17:20:00,79.2,42.3,30.21,NNE,27,6.0,14.0,27,0.00,,,0.00,meteohub,2013-05-02 21:20:00,
2013-05-02 17:25:00,78.3,44.2,30.20,NNE,27,7.0,14.0,30,0.00,,,0.00,meteohub,2013-05-02 21:25:00,
2013-05-02 17:30:00,77.4,44.4,30.20,NE,44,10.0,16.0,31,0.00,,,0.00,meteohub,2013-05-02 21:30:00,
2013-05-02 17:35:00,76.8,44.8,30.20,NE,37,10.0,16.0,32,0.00,,,0.00,meteohub,2013-05-02 21:35:00,
2013-05-02 17:40:00,76.5,44.4,30.20,East,82,6.0,16.0,32,0.00,,,0.00,meteohub,2013-05-02 21:40:00,
2013-05-02 17:45:00,76.6,45.3,30.21,ENE,57,8.0,14.0,33,0.00,,,0.00,meteohub,2013-05-02 21:45:00,
2013-05-02 17:50:00,76.1,45.0,30.20,NE,38,7.0,14.0,33,0.00,,,0.00,meteohub,2013-05-02 21:50:00,
2013-05-02 17:55:00,75.7,44.6,30.20,ENE,67,6.0,15.0,33,0.00,,,0.00,meteohub,2013-05-02 21:55:00,
2013-05-02 18:01:00,75.6,45.1,30.20,East,80,7.0,15.0,34,0.00,,,0.00,meteohub,2013-05-02 22:01:00,
2013-05-02 18:06:00,75.6,44.4,30.20,NNE,19,9.0,17.0,33,0.00,,,0.00,meteohub,2013-05-02 22:06:00,
2013-05-02 18:11:00,75.2,45.0,30.19,ENE,78,4.0,17.0,34,0.00,,,0.00,meteohub,2013-05-02 22:11:00,
2013-05-02 18:16:00,74.8,44.6,30.19,NE,42,4.0,18.0,34,0.00,,,0.00,meteohub,2013-05-02 22:16:00,
2013-05-02 18:21:00,74.7,45.1,30.19,NNE,17,10.0,18.0,35,0.00,,,0.00,meteohub,2013-05-02 22:21:00,
2013-05-02 18:26:00,74.1,44.8,30.19,NE,38,8.0,18.0,35,0.00,,,0.00,meteohub,2013-05-02 22:26:00,
2013-05-02 18:31:00,73.9,44.6,30.20,ENE,77,0.0,18.0,35,0.00,,,0.00,meteohub,2013-05-02 22:31:00,
2013-05-02 18:36:00,74.1,45.5,30.19,NE,48,11.0,18.0,36,0.00,,,0.00,meteohub,2013-05-02 22:36:00,
2013-05-02 18:41:00,73.9,45.3,30.19,ENE,65,10.0,16.0,36,0.00,,,0.00,meteohub,2013-05-02 22:41:00,
2013-05-02 18:46:00,73.8,45.9,30.19,ENE,72,5.0,16.0,37,0.00,,,0.00,meteohub,2013-05-02 22:46:00,
2013-05-02 18:51:00,73.8,45.1,30.19,ENE,74,6.0,16.0,36,0.00,,,0.00,meteohub,2013-05-02 22:51:00,
2013-05-02 18:56:00,73.6,45.0,30.19,NE,45,15.0,16.0,36,0.00,,,0.00,meteohub,2013-05-02 22:56:00,
2013-05-02 19:01:00,73.2,44.6,30.19,ENE,61,11.0,16.0,36,0.00,,,0.00,meteohub,2013-05-02 23:01:00,
2013-05-02 19:06:00,73.0,45.1,30.19,ENE,59,6.0,16.0,37,0.00,,,0.00,meteohub,2013-05-02 23:06:00,
2013-05-02 19:12:00,72.9,45.1,30.19,ENE,61,8.0,16.0,37,0.00,,,0.00,meteohub,2013-05-02 23:12:00,
2013-05-02 19:17:00,72.7,45.0,30.19,ENE,57,10.0,17.0,37,0.00,,,0.00,meteohub,2013-05-02 23:17:00,
2013-05-02 19:22:00,72.7,45.0,30.19,NE,45,6.0,17.0,37,0.00,,,0.00,meteohub,2013-05-02 23:22:00,
2013-05-02 19:27:00,72.3,44.6,30.19,East,98,13.0,17.0,37,0.00,,,0.00,meteohub,2013-05-02 23:27:00,
2013-05-02 19:32:00,72.1,44.4,30.19,East,100,9.0,13.0,37,0.00,,,0.00,meteohub,2013-05-02 23:32:00,
2013-05-02 19:37:00,72.0,45.0,30.19,NE,49,5.0,15.0,38,0.00,,,0.00,meteohub,2013-05-02 23:37:00,
2013-05-02 19:42:00,71.6,44.6,30.19,NE,50,12.0,15.0,38,0.00,,,0.00,meteohub,2013-05-02 23:42:00,
2013-05-02 19:47:00,71.2,44.2,30.19,ENE,69,4.0,15.0,38,0.00,,,0.00,meteohub,2013-05-02 23:47:00,
2013-05-02 19:52:00,71.1,44.8,30.19,NE,46,5.0,13.0,39,0.00,,,0.00,meteohub,2013-05-02 23:52:00,
2013-05-02 19:57:00,70.9,44.8,30.19,East,80,4.0,13.0,39,0.00,,,0.00,meteohub,2013-05-02 23:57:00,
2013-05-02 20:02:00,70.9,44.8,30.19,SE,128,5.0,14.0,39,0.00,,,0.00,meteohub,2013-05-03 00:02:00,
2013-05-02 20:07:00,70.7,44.6,30.19,East,79,12.0,14.0,39,0.00,,,0.00,meteohub,2013-05-03 00:07:00,
2013-05-02 20:12:00,70.5,44.4,30.19,ENE,63,8.0,14.0,39,0.00,,,0.00,meteohub,2013-05-03 00:12:00,
2013-05-02 20:17:00,70.2,44.1,30.18,East,86,6.0,13.0,39,0.00,,,0.00,meteohub,2013-05-03 00:17:00,
2013-05-02 20:22:00,70.0,43.9,30.19,ENE,70,7.0,15.0,39,0.00,,,0.00,meteohub,2013-05-03 00:22:00,
2013-05-02 20:27:00,69.6,44.2,30.19,ESE,105,6.0,15.0,40,0.00,,,0.00,meteohub,2013-05-03 00:27:00,
2013-05-02 20:32:00,69.3,44.6,30.19,East,96,5.0,15.0,41,0.00,,,0.00,meteohub,2013-05-03 00:32:00,
2013-05-02 20:37:00,68.9,44.2,30.19,ENE,69,4.0,12.0,41,0.00,,,0.00,meteohub,2013-05-03 00:37:00,
2013-05-02 20:42:00,68.5,44.6,30.19,East,100,4.0,11.0,42,0.00,,,0.00,meteohub,2013-05-03 00:42:00,
2013-05-02 20:47:00,68.4,44.4,30.19,ENE,63,3.0,11.0,42,0.00,,,0.00,meteohub,2013-05-03 00:47:00,
2013-05-02 20:52:00,67.8,44.4,30.19,ENE,64,3.0,11.0,43,0.00,,,0.00,meteohub,2013-05-03 00:52:00,
2013-05-02 20:57:00,67.6,44.4,30.19,East,86,4.0,11.0,43,0.00,,,0.00,meteohub,2013-05-03 00:57:00,
2013-05-02 21:02:00,67.3,44.6,30.19,ENE,71,6.0,10.0,44,0.00,,,0.00,meteohub,2013-05-03 01:02:00,
2013-05-02 21:07:00,66.9,44.2,30.19,East,86,5.0,10.0,44,0.00,,,0.00,meteohub,2013-05-03 01:07:00,
2013-05-02 21:12:00,66.7,44.8,30.19,ENE,76,5.0,10.0,45,0.00,,,0.00,meteohub,2013-05-03 01:12:00,
2013-05-02 21:17:00,66.6,44.6,30.19,ESE,103,4.0,10.0,45,0.00,,,0.00,meteohub,2013-05-03 01:17:00,
2013-05-02 21:22:00,66.4,44.4,30.19,East,89,2.0,9.0,45,0.00,,,0.00,meteohub,2013-05-03 01:22:00,
2013-05-02 21:27:00,66.0,44.6,30.19,East,95,1.0,8.0,46,0.00,,,0.00,meteohub,2013-05-03 01:27:00,
2013-05-02 21:32:00,65.7,45.0,30.20,East,97,4.0,8.0,47,0.00,,,0.00,meteohub,2013-05-03 01:32:00,
2013-05-02 21:37:00,65.5,44.8,30.20,East,96,4.0,7.0,47,0.00,,,0.00,meteohub,2013-05-03 01:37:00,
2013-05-02 21:42:00,65.5,44.8,30.20,East,97,0.0,7.0,47,0.00,,,0.00,meteohub,2013-05-03 01:42:00,
2013-05-02 21:47:00,65.1,44.4,30.20,ESE,106,0.0,7.0,47,0.00,,,0.00,meteohub,2013-05-03 01:47:00,
2013-05-02 21:52:00,64.9,44.8,30.20,ESE,106,1.0,5.0,48,0.00,,,0.00,meteohub,2013-05-03 01:52:00,
2013-05-02 21:57:00,64.9,44.8,30.20,ESE,106,1.0,5.0,48,0.00,,,0.00,meteohub,2013-05-03 01:57:00,
2013-05-02 22:02:00,64.8,44.6,30.20,ESE,106,0.0,5.0,48,0.00,,,0.00,meteohub,2013-05-03 02:02:00,
2013-05-02 22:07:00,64.6,44.4,30.20,ESE,106,1.0,4.0,48,0.00,,,0.00,meteohub,2013-05-03 02:07:00,
2013-05-02 22:12:00,64.4,44.2,30.19,ESE,118,1.0,4.0,48,0.00,,,0.00,meteohub,2013-05-03 02:12:00,
2013-05-02 22:17:00,64.4,43.7,30.19,SE,128,0.0,5.0,47,0.00,,,0.00,meteohub,2013-05-03 02:17:00,
2013-05-02 22:22:00,64.6,43.3,30.19,SE,128,0.0,5.0,46,0.00,,,0.00,meteohub,2013-05-03 02:22:00,
2013-05-02 22:27:00,64.6,42.8,30.20,East,93,4.0,5.0,45,0.00,,,0.00,meteohub,2013-05-03 02:27:00,
2013-05-02 22:32:00,64.8,42.3,30.19,East,97,0.0,5.0,44,0.00,,,0.00,meteohub,2013-05-03 02:32:00,
2013-05-02 22:37:00,64.9,41.9,30.19,East,101,0.0,5.0,43,0.00,,,0.00,meteohub,2013-05-03 02:37:00,
2013-05-02 22:42:00,65.1,42.1,30.19,SE,142,1.0,5.0,43,0.00,,,0.00,meteohub,2013-05-03 02:42:00,
2013-05-02 22:47:00,65.5,41.7,30.20,SSE,148,0.0,6.0,42,0.00,,,0.00,meteohub,2013-05-03 02:47:00,
2013-05-02 22:52:00,65.5,41.2,30.19,SSE,150,0.0,6.0,41,0.00,,,0.00,meteohub,2013-05-03 02:52:00,
2013-05-02 22:57:00,65.5,40.5,30.20,SSE,153,2.0,6.0,40,0.00,,,0.00,meteohub,2013-05-03 02:57:00,
2013-05-02 23:02:00,65.5,40.5,30.19,SE,144,6.0,6.0,40,0.00,,,0.00,meteohub,2013-05-03 03:02:00,
2013-05-02 23:07:00,65.8,39.6,30.19,South,182,2.0,7.0,38,0.00,,,0.00,meteohub,2013-05-03 03:07:00,
2013-05-02 23:12:00,66.0,39.0,30.19,SE,142,6.0,8.0,37,0.00,,,0.00,meteohub,2013-05-03 03:12:00,
2013-05-02 23:17:00,66.4,39.4,30.19,SE,132,2.0,8.0,37,0.00,,,0.00,meteohub,2013-05-03 03:17:00,
2013-05-02 23:22:00,66.4,38.7,30.19,SSE,164,4.0,8.0,36,0.00,,,0.00,meteohub,2013-05-03 03:22:00,
2013-05-02 23:27:00,66.4,38.7,30.19,SSE,157,2.0,10.0,36,0.00,,,0.00,meteohub,2013-05-03 03:27:00,
2013-05-02 23:32:00,66.6,38.1,30.19,SSE,158,2.0,10.0,35,0.00,,,0.00,meteohub,2013-05-03 03:32:00,
2013-05-02 23:37:00,66.7,38.3,30.19,SSE,162,4.0,11.0,35,0.00,,,0.00,meteohub,2013-05-03 03:37:00,
2013-05-02 23:42:00,66.7,38.3,30.19,SE,134,4.0,11.0,35,0.00,,,0.00,meteohub,2013-05-03 03:42:00,
2013-05-02 23:47:00,66.6,38.8,30.19,ESE,103,4.0,11.0,36,0.00,,,0.00,meteohub,2013-05-03 03:47:00,
2013-05-02 23:52:00,66.6,38.8,30.19,SSE,153,2.0,9.0,36,0.00,,,0.00,meteohub,2013-05-03 03:52:00,
2013-05-02 23:57:00,66.2,38.5,30.19,SE,138,0.0,9.0,36,0.00,,,0.00,meteohub,2013-05-03 03:57:00,